Time;durP1;ratioP1;P1;durP2;ratioP2;P2;SDS_P1;SDS_P2;PMS_P1;PMS_P2;Temp;Humidity;BMP_temperature;BMP_pressure;BME280_temperature;BME280_humidity;BME280_pressure;Samples;Min_cycle;Max_cycle;Signal;HPM_P1;HPM_P2
2021/11/09 00:00:07;;;;;;;13.07;9.77;;;5.40;99.90;;;;;;5036659;28;20430;-54
2021/11/09 00:02:32;;;;;;;12.40;9.13;;;5.20;99.90;;;;;;5036154;28;20409;-55
2021/11/09 00:04:59;;;;;;;13.23;10.07;;;5.30;99.90;;;;;;5033225;28;20767;-55
2021/11/09 00:07:32;;;;;;;22.13;15.80;;;5.30;99.90;;;;;;5036654;28;20258;-54
2021/11/09 00:09:58;;;;;;;21.20;17.33;;;5.20;99.90;;;;;;5036183;28;20457;-54
2021/11/09 00:12:30;;;;;;;13.43;12.00;;;5.20;99.90;;;;;;5036178;28;20433;-57
2021/11/09 00:14:58;;;;;;;16.50;11.67;;;5.20;99.90;;;;;;5036514;28;20436;-56
2021/11/09 00:17:24;;;;;;;13.80;9.83;;;5.20;99.90;;;;;;5036069;28;20417;-53
2021/11/09 00:19:52;;;;;;;12.47;8.93;;;5.20;99.90;;;;;;5035614;28;20446;-57
2021/11/09 00:22:18;;;;;;;13.83;10.83;;;5.30;99.90;;;;;;5036411;28;20416;-53
2021/11/09 00:24:44;;;;;;;14.77;10.70;;;5.30;99.90;;;;;;5036021;28;20408;-56
2021/11/09 00:27:10;;;;;;;13.07;9.33;;;5.30;99.90;;;;;;5036275;28;20492;-56
2021/11/09 00:29:36;;;;;;;11.33;8.33;;;5.30;99.90;;;;;;5035864;28;20499;-55
2021/11/09 00:32:04;;;;;;;15.13;9.23;;;5.20;99.90;;;;;;5036020;28;20178;-54
2021/11/09 00:34:30;;;;;;;16.20;8.80;;;5.20;99.90;;;;;;5035801;28;20765;-57
2021/11/09 00:36:56;;;;;;;11.87;8.20;;;5.20;99.90;;;;;;5036101;28;20914;-57
2021/11/09 00:39:22;;;;;;;9.93;7.57;;;5.20;99.90;;;;;;5035984;28;20430;-53
2021/11/09 00:41:48;;;;;;;13.67;8.70;;;5.20;99.90;;;;;;5035781;28;20409;-57
2021/11/09 00:44:13;;;;;;;10.70;7.90;;;5.30;99.90;;;;;;5035688;28;20222;-57
2021/11/09 00:46:39;;;;;;;9.80;8.20;;;5.20;99.90;;;;;;5035348;28;20254;-57
2021/11/09 00:49:05;;;;;;;12.37;8.83;;;5.20;99.90;;;;;;5034406;28;20745;-57
2021/11/09 00:51:30;;;;;;;13.83;9.30;;;5.10;99.90;;;;;;5035783;28;20664;-56
2021/11/09 00:53:56;;;;;;;11.50;8.70;;;5.10;99.90;;;;;;5035784;28;20655;-57
2021/11/09 00:56:21;;;;;;;11.60;8.80;;;4.90;99.90;;;;;;5035707;28;20163;-57
2021/11/09 00:58:47;;;;;;;15.00;9.10;;;4.90;99.90;;;;;;5023612;28;20183;-54
2021/11/09 01:01:13;;;;;;;9.40;8.00;;;5.00;99.90;;;;;;5035132;28;20176;-56
2021/11/09 01:03:38;;;;;;;13.83;10.13;;;5.00;99.90;;;;;;5035339;28;20659;-54
2021/11/09 01:06:04;;;;;;;13.87;11.73;;;4.90;99.90;;;;;;5035322;28;20258;-57
2021/11/09 01:08:30;;;;;;;13.20;10.60;;;4.70;99.90;;;;;;5035345;28;20179;-55
2021/11/09 01:10:57;;;;;;;12.53;8.97;;;4.70;99.90;;;;;;5035454;28;20191;-58
2021/11/09 01:13:25;;;;;;;12.27;8.00;;;4.80;99.90;;;;;;5035166;28;20628;-53
2021/11/09 01:15:53;;;;;;;10.70;8.17;;;4.90;99.90;;;;;;5035110;28;20465;-53
2021/11/09 01:18:27;;;;;;;15.60;9.47;;;4.90;99.90;;;;;;5017329;28;20412;-57
2021/11/09 01:20:55;;;;;;;16.50;9.30;;;4.90;99.90;;;;;;5034658;28;20511;-57
2021/11/09 01:23:22;;;;;;;12.30;7.40;;;5.00;99.90;;;;;;5034948;28;20459;-57
2021/11/09 01:25:48;;;;;;;13.40;9.73;;;5.00;99.90;;;;;;5035209;28;20405;-56
2021/11/09 01:28:14;;;;;;;15.80;10.70;;;5.00;99.90;;;;;;5034948;28;20459;-55
2021/11/09 01:30:41;;;;;;;20.03;10.60;;;5.10;99.90;;;;;;5034953;28;20647;-57
2021/11/09 01:33:08;;;;;;;17.70;10.70;;;5.10;99.90;;;;;;5034831;28;20497;-56
2021/11/09 01:35:34;;;;;;;14.23;9.97;;;5.20;99.90;;;;;;5034479;28;20409;-56
2021/11/09 01:38:00;;;;;;;17.20;11.53;;;5.30;99.90;;;;;;5034709;28;20394;-55
2021/11/09 01:40:26;;;;;;;18.87;9.70;;;5.40;99.90;;;;;;5034684;28;20503;-57
2021/11/09 01:42:54;;;;;;;13.17;9.67;;;5.40;99.90;;;;;;5016950;28;20422;-57
2021/11/09 01:45:20;;;;;;;13.50;10.57;;;5.40;99.90;;;;;;5035244;28;20418;-56
2021/11/09 01:47:49;;;;;;;12.30;10.10;;;5.40;99.90;;;;;;5034463;28;20410;-56
2021/11/09 01:50:20;;;;;;;15.63;10.30;;;5.30;99.90;;;;;;5034574;28;20215;-55
2021/11/09 01:52:46;;;;;;;13.00;9.73;;;5.30;99.90;;;;;;5035002;28;20386;-54
2021/11/09 01:55:15;;;;;;;11.27;8.60;;;5.40;99.90;;;;;;5035004;28;20891;-52
2021/11/09 01:57:42;;;;;;;14.77;8.00;;;5.40;99.90;;;;;;5034096;28;20176;-55
2021/11/09 02:00:15;;;;;;;16.10;9.50;;;5.40;99.90;;;;;;5016546;28;20517;-54
2021/11/09 02:02:42;;;;;;;15.73;10.17;;;5.40;99.90;;;;;;5034462;28;20906;-57
2021/11/09 02:05:08;;;;;;;9.70;8.20;;;5.40;99.90;;;;;;5033982;28;20417;-55
2021/11/09 02:07:34;;;;;;;16.97;11.20;;;5.50;99.90;;;;;;5031165;28;20906;-57
2021/11/09 02:10:00;;;;;;;14.83;11.33;;;5.40;99.90;;;;;;5033993;28;20507;-55
2021/11/09 02:12:25;;;;;;;13.07;9.90;;;5.50;99.90;;;;;;5034146;28;20171;-57
2021/11/09 02:14:51;;;;;;;12.10;8.83;;;5.50;99.90;;;;;;5034276;28;20159;-56
2021/11/09 02:17:17;;;;;;;11.67;8.40;;;5.50;99.90;;;;;;5033739;28;20171;-55
2021/11/09 02:19:44;;;;;;;11.93;9.57;;;5.60;99.90;;;;;;5033445;28;20669;-54
2021/11/09 02:22:09;;;;;;;15.20;12.60;;;5.70;99.90;;;;;;5033994;28;20175;-53
2021/11/09 02:24:36;;;;;;;15.07;11.80;;;5.70;99.90;;;;;;5034098;28;20421;-57
2021/11/09 02:27:03;;;;;;;13.87;11.60;;;5.70;99.90;;;;;;5034031;28;20194;-56
2021/11/09 02:29:29;;;;;;;17.27;11.50;;;5.80;99.90;;;;;;5016032;28;20457;-55
2021/11/09 02:31:55;;;;;;;20.07;14.13;;;5.80;99.90;;;;;;5033770;28;20402;-52
2021/11/09 02:34:21;;;;;;;17.40;11.70;;;5.80;99.90;;;;;;5033764;28;20423;-51
2021/11/09 02:36:47;;;;;;;14.63;11.90;;;5.90;99.90;;;;;;5034152;28;20406;-56
2021/11/09 02:39:13;;;;;;;11.13;9.57;;;6.00;99.90;;;;;;5034358;28;20426;-55
2021/11/09 02:41:39;;;;;;;12.97;9.97;;;6.00;99.90;;;;;;5033971;28;20199;-54
2021/11/09 02:44:06;;;;;;;16.47;12.17;;;5.90;99.90;;;;;;5033795;28;20443;-55
2021/11/09 02:46:48;;;;;;;12.23;11.00;;;5.90;99.90;;;;;;5033613;28;20406;-55
2021/11/09 02:54:40;;;;;;;14.00;10.77;;;5.80;99.90;;;;;;5020469;28;20176;-57
2021/11/09 02:57:10;;;;;;;13.93;10.30;;;6.00;99.90;;;;;;5033393;28;20390;-56
2021/11/09 03:10:02;;;;;;;12.33;10.57;;;6.10;99.90;;;;;;5032995;28;20818;-58
2021/11/09 03:12:39;;;;;;;13.20;10.23;;;6.20;99.90;;;;;;5033132;28;20418;-57
2021/11/09 03:15:08;;;;;;;13.57;10.87;;;6.20;99.90;;;;;;5033425;28;20469;-57
2021/11/09 03:17:49;;;;;;;15.37;10.20;;;6.20;99.90;;;;;;5028442;28;20457;-58
2021/11/09 03:20:26;;;;;;;15.23;10.53;;;6.30;99.90;;;;;;5025484;28;20464;-58
2021/11/09 03:47:14;;;;;;;11.73;10.30;;;5.60;99.90;;;;;;5032702;28;20754;-57
2021/11/09 03:49:41;;;;;;;18.03;12.40;;;5.60;99.90;;;;;;5032453;28;20890;-56
2021/11/09 03:52:17;;;;;;;14.57;10.47;;;5.50;99.90;;;;;;5033045;28;20839;-56
2021/11/09 03:54:43;;;;;;;18.03;11.23;;;5.40;99.90;;;;;;5033002;28;20429;-55
2021/11/09 03:57:24;;;;;;;12.97;9.03;;;5.40;99.90;;;;;;5033086;28;20412;-57
2021/11/09 04:05:19;;;;;;;13.20;9.47;;;5.20;99.90;;;;;;5032790;28;20392;-57
2021/11/09 04:10:17;;;;;;;13.20;10.73;;;5.10;99.90;;;;;;5032555;28;20512;-57
2021/11/09 05:09:20;;;;;;;8.03;5.90;;;4.40;99.90;;;;;;5035453;28;20393;-56
2021/11/09 05:11:18;;;;;;;6.33;5.63;;;4.30;99.90;;;;;;5024671;28;20414;-56
2021/11/09 05:13:43;;;;;;;9.97;7.10;;;4.40;99.90;;;;;;5035388;28;20414;-57
2021/11/09 05:16:09;;;;;;;8.80;6.10;;;4.40;99.90;;;;;;5035428;28;20739;-54
2021/11/09 05:18:35;;;;;;;8.27;6.30;;;4.40;99.90;;;;;;5034674;28;20167;-57
2021/11/09 05:21:00;;;;;;;9.20;5.83;;;4.40;99.90;;;;;;5051322;22;20606;-58
2021/11/09 05:23:26;;;;;;;8.70;5.87;;;4.30;99.90;;;;;;5029183;28;20413;-59
2021/11/09 05:25:52;;;;;;;6.70;5.20;;;4.20;99.90;;;;;;5035180;28;20174;-57
2021/11/09 05:28:18;;;;;;;9.80;5.70;;;4.10;99.90;;;;;;5035659;28;20170;-58
2021/11/09 05:30:48;;;;;;;9.07;6.50;;;4.10;99.90;;;;;;5035052;28;20187;-60
2021/11/09 05:33:15;;;;;;;7.80;5.37;;;4.20;99.90;;;;;;5027593;28;20403;-60
2021/11/09 05:35:40;;;;;;;5.50;4.93;;;4.10;99.90;;;;;;5023844;28;20418;-60
2021/11/09 05:38:08;;;;;;;8.83;6.40;;;4.10;99.90;;;;;;5014422;28;20425;-60
2021/11/09 05:40:37;;;;;;;7.00;5.77;;;4.10;99.90;;;;;;5014882;28;20200;-60
2021/11/09 05:43:03;;;;;;;10.17;6.40;;;4.10;99.90;;;;;;5014974;28;20494;-60
2021/11/09 05:45:30;;;;;;;6.80;5.27;;;4.10;99.90;;;;;;5015224;28;20399;-60
2021/11/09 05:47:56;;;;;;;6.83;5.00;;;4.10;99.90;;;;;;5014990;28;20407;-59
2021/11/09 05:50:25;;;;;;;10.50;6.77;;;4.10;99.90;;;;;;5025137;28;20462;-60
2021/11/09 05:52:50;;;;;;;9.80;6.67;;;4.10;99.90;;;;;;5035016;28;20436;-60
2021/11/09 05:55:16;;;;;;;11.97;6.83;;;4.10;99.90;;;;;;5034558;28;20406;-59
2021/11/09 05:57:42;;;;;;;10.03;6.00;;;4.10;99.90;;;;;;5034856;28;20170;-56
2021/11/09 06:00:09;;;;;;;7.33;5.03;;;4.10;99.90;;;;;;5033124;28;20207;-59
2021/11/09 06:02:35;;;;;;;6.57;5.70;;;4.20;99.90;;;;;;5034302;28;20438;-58
2021/11/09 06:05:02;;;;;;;8.13;5.73;;;4.10;99.90;;;;;;5034127;28;20405;-59
2021/11/09 06:07:28;;;;;;;9.63;5.80;;;4.10;99.90;;;;;;5034339;28;20493;-59
2021/11/09 06:09:53;;;;;;;12.23;6.37;;;4.00;99.90;;;;;;5031180;28;20522;-59
2021/11/09 06:12:19;;;;;;;10.73;7.37;;;4.00;99.90;;;;;;5034241;28;20175;-58
2021/11/09 06:14:45;;;;;;;11.80;7.97;;;4.00;99.90;;;;;;5034305;28;20178;-56
2021/11/09 06:17:11;;;;;;;8.40;6.37;;;4.00;99.90;;;;;;5034317;28;20701;-57
2021/11/09 06:19:37;;;;;;;8.83;6.07;;;4.00;99.90;;;;;;5033423;28;20541;-57
2021/11/09 06:22:03;;;;;;;8.67;5.80;;;4.00;99.90;;;;;;5034337;28;20239;-58
2021/11/09 06:24:29;;;;;;;9.37;6.23;;;4.00;99.90;;;;;;5034652;28;20179;-58
2021/11/09 06:26:55;;;;;;;10.70;7.87;;;4.00;99.90;;;;;;5034371;28;20410;-57
2021/11/09 06:29:21;;;;;;;11.73;6.93;;;4.00;99.90;;;;;;5034774;28;20429;-58
2021/11/09 06:31:49;;;;;;;8.90;6.67;;;4.10;99.90;;;;;;5033950;28;20321;-56
2021/11/09 06:34:15;;;;;;;8.50;6.23;;;4.10;99.90;;;;;;5033408;28;20441;-53
2021/11/09 06:36:40;;;;;;;10.07;6.90;;;4.10;99.90;;;;;;5034323;28;20421;-57
2021/11/09 06:39:06;;;;;;;11.33;6.93;;;4.10;99.90;;;;;;5034267;28;20450;-56
2021/11/09 06:41:32;;;;;;;9.03;6.43;;;4.10;99.90;;;;;;5034596;28;20504;-59
2021/11/09 06:43:57;;;;;;;10.33;7.67;;;4.00;99.90;;;;;;5035276;28;20406;-56
2021/11/09 06:46:23;;;;;;;12.60;7.80;;;4.00;99.90;;;;;;5033648;28;20250;-56
2021/11/09 06:48:49;;;;;;;10.07;6.17;;;4.10;99.90;;;;;;5034976;28;20175;-55
2021/11/09 06:51:15;;;;;;;11.23;9.40;;;4.20;99.90;;;;;;5034703;28;20276;-55
2021/11/09 06:53:42;;;;;;;15.47;7.73;;;4.20;99.90;;;;;;5035867;28;20168;-59
2021/11/09 06:56:07;;;;;;;12.07;10.03;;;4.20;99.90;;;;;;5034425;28;20167;-57
2021/11/09 06:58:36;;;;;;;10.47;7.80;;;4.20;99.90;;;;;;5033948;28;20917;-61
2021/11/09 07:01:03;;;;;;;11.17;8.43;;;4.20;99.90;;;;;;5033907;28;20195;-59
2021/11/09 07:03:30;;;;;;;12.90;8.50;;;4.30;99.90;;;;;;5033327;28;20468;-58
2021/11/09 07:05:56;;;;;;;10.50;7.73;;;4.30;99.90;;;;;;5033270;28;20464;-59
2021/11/09 07:08:22;;;;;;;13.40;8.30;;;4.30;99.90;;;;;;5033495;28;20414;-54
2021/11/09 07:10:48;;;;;;;12.17;7.70;;;4.30;99.90;;;;;;5033740;28;20555;-59
2021/11/09 07:13:14;;;;;;;10.73;8.70;;;4.40;99.90;;;;;;5034266;28;20546;-57
2021/11/09 07:15:40;;;;;;;14.13;8.23;;;4.50;99.90;;;;;;5033684;28;20406;-56
2021/11/09 07:18:07;;;;;;;11.57;8.17;;;4.50;99.90;;;;;;5033455;28;20254;-55
2021/11/09 07:20:33;;;;;;;9.93;8.53;;;4.50;99.90;;;;;;5034713;28;20285;-54
2021/11/09 07:23:03;;;;;;;9.97;7.70;;;4.50;99.90;;;;;;5035552;28;20433;-56
2021/11/09 07:25:28;;;;;;;13.70;8.43;;;4.50;99.90;;;;;;5035530;28;20168;-56
2021/11/09 07:27:54;;;;;;;12.40;7.57;;;4.50;99.90;;;;;;5035195;28;20813;-56
2021/11/09 07:30:21;;;;;;;12.07;9.20;;;4.50;99.90;;;;;;5034725;28;20217;-55
2021/11/09 07:32:47;;;;;;;13.63;9.10;;;4.40;99.90;;;;;;5034593;28;20163;-57
2021/11/09 07:35:15;;;;;;;9.47;7.90;;;4.50;99.90;;;;;;5034367;28;20471;-56
2021/11/09 07:37:40;;;;;;;10.03;7.87;;;4.50;99.90;;;;;;5033943;28;20187;-59
2021/11/09 07:40:06;;;;;;;11.03;7.83;;;4.60;99.90;;;;;;5033112;28;20544;-58
2021/11/09 07:42:33;;;;;;;10.43;8.37;;;4.70;99.90;;;;;;5033113;28;20172;-59
2021/11/09 07:44:59;;;;;;;8.90;7.30;;;4.80;99.90;;;;;;5031594;28;20774;-57
2021/11/09 07:47:25;;;;;;;13.60;8.33;;;4.80;99.90;;;;;;5033057;28;20398;-55
2021/11/09 07:49:51;;;;;;;8.70;7.80;;;4.90;99.90;;;;;;5032955;28;20444;-58
2021/11/09 07:52:17;;;;;;;9.43;8.23;;;4.90;99.90;;;;;;5032919;28;20172;-58
2021/11/09 07:54:49;;;;;;;10.07;8.27;;;5.00;99.90;;;;;;5033109;28;20407;-58
2021/11/09 07:57:15;;;;;;;9.83;7.93;;;5.00;99.90;;;;;;5034084;28;20390;-58
2021/11/09 07:59:54;;;;;;;10.63;7.67;;;5.00;99.90;;;;;;5036523;28;20463;-59
2021/11/09 08:04:54;;;;;;;10.47;7.77;;;5.20;99.90;;;;;;5036413;28;20919;-57
2021/11/09 08:07:25;;;;;;;13.53;9.17;;;5.30;99.90;;;;;;5033504;28;20387;-57
2021/11/09 08:09:51;;;;;;;14.07;9.00;;;5.40;99.90;;;;;;5036421;28;20425;-59
2021/11/09 08:12:17;;;;;;;14.00;9.33;;;5.40;99.90;;;;;;5036632;28;20417;-57
2021/11/09 08:14:42;;;;;;;11.63;10.23;;;5.50;99.90;;;;;;5036210;28;20401;-58
2021/11/09 08:17:08;;;;;;;15.17;10.47;;;5.50;99.90;;;;;;5036131;28;20167;-59
2021/11/09 08:19:35;;;;;;;13.60;10.60;;;5.60;99.90;;;;;;5035625;28;20218;-58
2021/11/09 08:22:01;;;;;;;13.67;9.43;;;5.70;99.90;;;;;;5036081;28;20401;-58
2021/11/09 08:24:27;;;;;;;12.57;9.83;;;5.80;99.90;;;;;;5036474;28;20473;-59
2021/11/09 08:26:56;;;;;;;15.47;11.30;;;5.80;99.90;;;;;;5026162;28;20929;-59
2021/11/09 08:29:25;;;;;;;12.30;10.43;;;5.90;99.90;;;;;;5035339;28;20436;-59
2021/11/09 08:31:53;;;;;;;16.03;12.00;;;6.00;99.90;;;;;;5036090;28;20413;-57
2021/11/09 08:34:19;;;;;;;16.63;11.30;;;6.00;99.90;;;;;;5035716;28;20414;-58
2021/11/09 08:36:45;;;;;;;15.47;12.73;;;6.10;99.90;;;;;;5036121;28;20406;-59
2021/11/09 08:39:17;;;;;;;17.17;13.40;;;6.20;99.90;;;;;;5034612;28;20458;-57
2021/11/09 08:41:48;;;;;;;16.03;12.17;;;6.30;99.90;;;;;;5035846;28;20474;-59
2021/11/09 08:44:23;;;;;;;18.63;13.80;;;6.40;99.90;;;;;;5034965;28;20441;-59
2021/11/09 08:46:51;;;;;;;15.73;12.47;;;6.50;99.90;;;;;;5035941;28;20381;-58
2021/11/09 08:49:19;;;;;;;20.80;14.47;;;6.50;99.90;;;;;;5035402;28;20457;-58
2021/11/09 08:51:46;;;;;;;17.43;12.30;;;6.50;99.90;;;;;;5035341;28;20468;-58
2021/11/09 08:54:15;;;;;;;17.77;12.23;;;6.30;99.90;;;;;;5035806;28;20407;-58
2021/11/09 09:04:56;;;;;;;15.23;12.60;;;6.60;99.90;;;;;;5035919;28;21017;-60
2021/11/09 09:07:26;;;;;;;14.40;12.33;;;6.70;99.90;;;;;;5035561;28;20418;-57
2021/11/09 09:09:53;;;;;;;18.50;12.10;;;6.80;99.90;;;;;;5034410;28;20427;-60
2021/11/09 09:12:20;;;;;;;17.50;12.40;;;7.00;99.90;;;;;;5034105;28;20429;-60
2021/11/09 09:14:46;;;;;;;19.10;12.90;;;7.10;99.90;;;;;;5035654;28;20463;-60
2021/11/09 09:17:12;;;;;;;13.63;12.23;;;7.20;99.90;;;;;;5035452;28;20805;-59
2021/11/09 09:19:46;;;;;;;16.97;13.23;;;7.20;99.90;;;;;;5035048;28;20226;-59
2021/11/09 09:22:13;;;;;;;22.03;13.53;;;7.20;99.90;;;;;;5034979;28;20178;-59
2021/11/09 09:27:24;;;;;;;15.23;13.63;;;7.30;99.90;;;;;;5035720;28;20390;-58
2021/11/09 09:33:05;;;;;;;21.00;13.40;;;7.50;99.90;;;;;;5035013;28;20722;-59
2021/11/09 09:57:14;;;;;;;11.87;9.87;;;8.30;99.90;;;;;;5035154;28;21005;-59
2021/11/09 09:59:42;;;;;;;14.93;10.10;;;8.30;99.90;;;;;;5034305;28;20458;-53
2021/11/09 10:02:16;;;;;;;15.93;9.43;;;8.40;99.90;;;;;;5034737;28;20813;-60
2021/11/09 10:04:45;;;;;;;12.10;8.13;;;8.40;99.90;;;;;;5031780;28;20407;-57
2021/11/09 10:07:13;;;;;;;11.43;8.43;;;8.40;99.90;;;;;;5034060;28;20494;-59
2021/11/09 10:09:47;;;;;;;12.83;8.03;;;8.50;99.90;;;;;;5034520;28;20428;-60
2021/11/09 10:12:33;;;;;;;12.53;8.10;;;8.70;99.90;;;;;;5034309;28;20390;-60
2021/11/09 10:15:07;;;;;;;10.80;8.30;;;8.90;99.90;;;;;;5034520;28;20418;-59
2021/11/09 10:17:34;;;;;;;9.50;7.40;;;8.60;99.90;;;;;;5034431;28;20391;-60
2021/11/09 10:20:11;;;;;;;12.97;6.53;;;8.70;99.90;;;;;;5033700;28;20455;-59
2021/11/09 10:22:37;;;;;;;8.37;6.23;;;8.90;99.90;;;;;;5034271;28;20473;-58
2021/11/09 10:25:05;;;;;;;6.60;5.20;;;9.10;99.90;;;;;;5035159;28;20435;-59
2021/11/09 10:27:33;;;;;;;7.20;4.83;;;9.10;99.90;;;;;;5034457;28;20499;-58
2021/11/09 10:30:08;;;;;;;11.17;5.37;;;9.20;99.90;;;;;;5034570;28;20482;-58
2021/11/09 10:32:35;;;;;;;12.63;5.87;;;9.00;99.90;;;;;;5034776;28;20481;-59
2021/11/09 10:35:03;;;;;;;8.47;4.90;;;8.90;99.90;;;;;;5034232;28;20420;-59
2021/11/09 10:37:32;;;;;;;8.63;5.40;;;9.10;99.90;;;;;;5033771;28;20405;-58
2021/11/09 10:40:05;;;;;;;9.87;4.43;;;9.20;99.90;;;;;;5033775;28;20850;-57
2021/11/09 10:42:36;;;;;;;7.23;5.20;;;9.30;99.90;;;;;;5034038;28;20873;-59
2021/11/09 10:45:10;;;;;;;10.13;5.80;;;9.60;99.90;;;;;;5034177;28;20403;-59
2021/11/09 10:47:38;;;;;;;8.77;5.07;;;10.40;99.90;;;;;;5033716;28;20391;-59
2021/11/09 10:50:06;;;;;;;8.97;4.83;;;11.80;99.90;;;;;;5033957;28;20569;-58
2021/11/09 10:52:37;;;;;;;8.97;4.77;;;12.80;99.90;;;;;;5033883;28;20500;-60
2021/11/09 10:55:16;;;;;;;8.30;4.70;;;14.10;99.90;;;;;;5032480;28;20417;-59
2021/11/09 11:03:53;;;;;;;8.33;4.30;;;15.50;95.50;;;;;;5022072;28;20413;-57
2021/11/09 11:06:32;;;;;;;6.53;4.10;;;16.40;93.40;;;;;;5032873;28;20394;-57
2021/11/09 11:09:20;;;;;;;5.43;3.40;;;15.50;94.00;;;;;;5032398;28;20820;-56
2021/11/09 11:11:51;;;;;;;7.90;4.07;;;17.40;93.00;;;;;;5033534;28;20413;-59
2021/11/09 11:14:22;;;;;;;5.10;3.50;;;17.60;91.50;;;;;;5033219;28;20417;-59
2021/11/09 11:17:05;;;;;;;6.10;3.27;;;18.90;89.40;;;;;;5033422;28;20489;-58
2021/11/09 11:19:33;;;;;;;8.53;4.40;;;20.40;83.60;;;;;;5027633;28;21005;-58
2021/11/09 11:22:01;;;;;;;6.93;4.30;;;21.80;79.10;;;;;;5038516;22;20494;-55
2021/11/09 11:24:27;;;;;;;5.37;3.67;;;21.70;75.50;;;;;;5019870;28;20446;-57
2021/11/09 11:26:56;;;;;;;7.43;4.10;;;21.90;72.10;;;;;;5013436;28;20404;-56
2021/11/09 11:29:28;;;;;;;7.47;4.07;;;21.30;70.80;;;;;;5013549;28;20766;-56
2021/11/09 11:31:55;;;;;;;7.10;5.03;;;21.70;72.80;;;;;;5013333;28;20415;-57
2021/11/09 11:34:22;;;;;;;8.20;4.87;;;21.50;70.40;;;;;;5016849;28;20395;-57
2021/11/09 11:36:49;;;;;;;9.50;5.07;;;21.70;69.90;;;;;;5016269;28;20888;-56
2021/11/09 11:39:20;;;;;;;10.50;5.53;;;22.30;68.50;;;;;;5016982;28;20541;-56
2021/11/09 11:41:51;;;;;;;9.07;5.23;;;22.50;66.50;;;;;;5016978;28;20430;-57
2021/11/09 11:44:28;;;;;;;7.97;5.30;;;20.00;68.60;;;;;;5017078;28;20876;-56
2021/11/09 11:47:00;;;;;;;9.60;5.10;;;19.90;71.20;;;;;;5017173;28;20382;-56
2021/11/09 11:49:27;;;;;;;8.30;4.83;;;19.30;72.00;;;;;;5016769;28;20414;-55
2021/11/09 11:51:53;;;;;;;12.17;5.17;;;18.70;74.20;;;;;;5016500;28;20434;-52
2021/11/09 11:54:36;;;;;;;5.53;4.10;;;18.70;75.10;;;;;;5016391;28;20897;-56
2021/11/09 11:57:02;;;;;;;7.90;4.07;;;19.50;74.00;;;;;;5016767;28;20148;-54
2021/11/09 11:59:28;;;;;;;6.33;3.50;;;19.70;71.80;;;;;;5016289;28;20446;-57
2021/11/09 12:01:58;;;;;;;5.40;4.10;;;21.00;70.30;;;;;;5015787;28;20427;-57
2021/11/09 12:04:39;;;;;;;5.43;3.87;;;20.40;68.70;;;;;;5016654;28;20167;-55
2021/11/09 12:07:28;;;;;;;4.47;3.30;;;20.40;69.20;;;;;;5016306;28;20754;-53
2021/11/09 12:10:05;;;;;;;6.03;3.70;;;20.20;68.70;;;;;;5016112;28;20442;-57
2021/11/09 12:12:32;;;;;;;3.90;2.83;;;19.60;70.50;;;;;;5017011;28;20426;-56
2021/11/09 12:15:03;;;;;;;4.27;2.70;;;20.80;67.70;;;;;;5016731;28;20426;-53
2021/11/09 12:17:41;;;;;;;4.00;2.83;;;20.10;68.00;;;;;;5016512;28;20422;-55
2021/11/09 12:20:09;;;;;;;5.30;3.77;;;20.70;66.20;;;;;;5015285;28;20442;-54
2021/11/09 12:22:44;;;;;;;6.40;3.17;;;19.90;67.00;;;;;;5015554;28;20545;-55
2021/11/09 12:25:36;;;;;;;3.77;2.60;;;19.90;68.10;;;;;;5016056;28;20418;-55
2021/11/09 12:28:08;;;;;;;6.83;3.00;;;19.50;68.40;;;;;;5016512;28;20383;-56
2021/11/09 12:30:36;;;;;;;4.63;3.27;;;18.30;70.10;;;;;;5016505;28;20570;-54
2021/11/09 12:33:16;;;;;;;6.43;3.83;;;18.20;69.00;;;;;;5016256;28;20899;-54
2021/11/09 12:35:47;;;;;;;4.73;3.27;;;17.10;71.40;;;;;;5016016;28;20406;-56
2021/11/09 12:38:21;;;;;;;4.60;2.50;;;17.70;72.20;;;;;;5015934;28;20787;-52
2021/11/09 12:40:55;;;;;;;4.00;2.40;;;19.20;69.70;;;;;;5016060;28;20473;-56
2021/11/09 12:43:32;;;;;;;7.40;3.27;;;20.20;66.90;;;;;;5015059;28;20384;-54
2021/11/09 12:46:39;;;;;;;7.10;2.77;;;19.30;68.50;;;;;;5016027;28;20748;-56
2021/11/09 12:49:12;;;;;;;4.27;2.57;;;19.60;69.10;;;;;;5013512;28;20469;-56
2021/11/09 12:51:49;;;;;;;5.03;3.33;;;20.40;67.50;;;;;;5015328;28;20430;-56
2021/11/09 12:54:17;;;;;;;5.60;2.73;;;22.00;63.90;;;;;;5015973;28;20393;-56
2021/11/09 12:56:48;;;;;;;3.77;2.67;;;21.10;64.50;;;;;;5015715;28;20407;-56
2021/11/09 12:59:40;;;;;;;4.47;2.50;;;20.60;63.80;;;;;;5014814;28;20512;-57
2021/11/09 13:09:58;;;;;;;6.17;3.47;;;19.20;66.10;;;;;;5015999;28;20395;-56
2021/11/09 13:12:31;;;;;;;3.70;3.33;;;17.00;71.00;;;;;;5015577;28;20845;-57
2021/11/09 13:15:00;;;;;;;5.90;4.40;;;15.60;75.00;;;;;;5015357;28;20385;-57
2021/11/09 13:17:54;;;;;;;6.70;3.30;;;14.60;78.10;;;;;;5015171;28;20418;-54
2021/11/09 13:20:35;;;;;;;6.30;3.67;;;14.10;80.30;;;;;;5013551;28;20444;-55
2021/11/09 13:23:04;;;;;;;6.10;3.23;;;13.80;81.60;;;;;;5015006;28;20766;-55
2021/11/09 13:25:36;;;;;;;4.70;3.30;;;13.60;82.00;;;;;;5015403;28;20455;-57
2021/11/09 13:28:13;;;;;;;4.80;3.40;;;13.80;82.50;;;;;;5015319;28;20409;-55
2021/11/09 13:30:40;;;;;;;5.83;3.57;;;13.80;83.10;;;;;;5014979;28;20808;-57
2021/11/09 13:33:07;;;;;;;6.07;3.77;;;13.40;83.10;;;;;;5015232;28;20412;-54
2021/11/09 13:35:44;;;;;;;7.00;3.60;;;13.20;83.70;;;;;;5014820;28;20729;-56
2021/11/09 13:38:16;;;;;;;4.47;3.50;;;13.20;84.90;;;;;;5014893;28;20396;-57
2021/11/09 13:40:46;;;;;;;4.60;3.30;;;12.80;85.40;;;;;;5015037;28;20455;-56
2021/11/09 13:43:14;;;;;;;6.57;3.70;;;12.60;87.00;;;;;;5014744;28;20404;-56
2021/11/09 13:45:40;;;;;;;6.80;3.53;;;12.50;87.50;;;;;;5014957;28;20420;-57
2021/11/09 13:48:16;;;;;;;8.50;4.10;;;12.50;87.80;;;;;;5014865;28;20492;-55
2021/11/09 13:50:45;;;;;;;4.87;3.10;;;12.40;88.70;;;;;;5014442;28;20439;-56
2021/11/09 13:53:11;;;;;;;4.27;3.30;;;12.20;89.00;;;;;;5014362;28;20418;-51
2021/11/09 13:55:40;;;;;;;3.37;2.97;;;12.10;90.80;;;;;;5014141;28;20442;-57
2021/11/09 13:58:08;;;;;;;5.00;3.00;;;12.30;90.50;;;;;;5014204;28;20826;-57
2021/11/09 14:00:40;;;;;;;4.70;3.23;;;12.40;90.30;;;;;;5013193;28;20458;-57
2021/11/09 14:03:37;;;;;;;5.30;2.90;;;12.40;90.50;;;;;;5014226;28;20403;-57
2021/11/09 14:16:50;;;;;;;5.93;3.63;;;11.60;91.40;;;;;;5014383;28;20411;-55
2021/11/09 14:19:34;;;;;;;6.47;3.83;;;11.40;91.70;;;;;;5014073;28;20581;-57
2021/11/09 14:22:18;;;;;;;8.47;3.10;;;11.50;92.40;;;;;;5007511;28;20454;-57
2021/11/09 14:25:02;;;;;;;6.30;3.40;;;11.60;92.70;;;;;;5014334;28;20407;-56
2021/11/09 14:27:32;;;;;;;5.97;2.83;;;11.50;92.80;;;;;;5014389;28;20457;-57
2021/11/09 14:29:59;;;;;;;6.33;3.23;;;11.60;93.30;;;;;;5014571;28;20881;-55
2021/11/09 14:32:32;;;;;;;4.73;3.03;;;11.70;93.00;;;;;;5014071;28;20519;-56
2021/11/09 14:35:07;;;;;;;6.90;3.40;;;11.60;93.00;;;;;;5013767;28;20415;-55
2021/11/09 14:37:53;;;;;;;5.70;2.97;;;11.70;93.00;;;;;;5013259;28;20395;-57
2021/11/09 14:40:28;;;;;;;6.97;3.57;;;11.70;93.20;;;;;;5014041;28;20433;-56
2021/11/09 14:45:36;;;;;;;4.60;3.10;;;11.70;93.30;;;;;;5014018;28;20408;-57
2021/11/09 14:48:13;;;;;;;4.33;2.97;;;11.70;93.60;;;;;;5014051;28;20191;-56
2021/11/09 14:50:51;;;;;;;4.70;2.80;;;11.50;94.00;;;;;;5013672;28;20945;-57
2021/11/09 14:53:21;;;;;;;6.53;3.50;;;11.40;94.30;;;;;;5013469;28;20425;-48
2021/11/09 14:55:51;;;;;;;5.53;3.07;;;11.50;95.20;;;;;;5013529;28;20407;-58
2021/11/09 14:58:42;;;;;;;4.70;2.80;;;11.60;95.10;;;;;;5014093;28;20398;-57
2021/11/09 15:01:37;;;;;;;7.50;2.90;;;11.40;95.50;;;;;;5013632;28;20465;-57
2021/11/09 15:04:17;;;;;;;5.40;3.10;;;11.20;96.70;;;;;;5013506;28;20777;-52
2021/11/09 15:26:18;;;;;;;4.67;3.20;;;10.30;99.90;;;;;;4994420;28;20784;-55
2021/11/09 15:28:19;;;;;;;4.90;2.97;;;10.30;99.90;;;;;;4987019;28;20449;-53
2021/11/09 15:33:23;;;;;;;5.47;3.10;;;10.30;99.90;;;;;;4993815;28;20911;-57
2021/11/09 15:38:21;;;;;;;7.20;3.10;;;10.10;99.90;;;;;;4993939;28;20414;-57
2021/11/09 15:40:52;;;;;;;5.13;2.90;;;9.90;99.90;;;;;;4993284;28;21021;-58
2021/11/09 15:43:17;;;;;;;6.33;2.83;;;9.80;99.90;;;;;;4993702;28;20466;-57
2021/11/09 15:45:43;;;;;;;5.30;3.33;;;9.60;99.90;;;;;;4993676;28;20437;-55
2021/11/09 15:48:09;;;;;;;4.00;3.30;;;9.50;99.90;;;;;;4993411;28;20704;-57
2021/11/09 15:50:35;;;;;;;5.00;3.73;;;9.40;99.90;;;;;;4995610;28;20277;-58
2021/11/09 15:53:02;;;;;;;5.63;3.27;;;9.30;99.90;;;;;;5012515;28;20769;-58
2021/11/09 15:55:28;;;;;;;4.23;2.80;;;9.20;99.90;;;;;;5013376;28;20807;-57
2021/11/09 15:57:53;;;;;;;6.40;3.40;;;9.00;99.90;;;;;;5013230;28;20831;-57
2021/11/09 16:00:19;;;;;;;7.00;3.00;;;8.90;99.90;;;;;;5012615;28;20482;-57
2021/11/09 16:02:46;;;;;;;7.20;3.80;;;8.80;99.90;;;;;;5013059;28;20167;-57
2021/11/09 16:05:13;;;;;;;3.93;3.33;;;8.70;99.90;;;;;;5013402;28;20168;-56
2021/11/09 16:07:39;;;;;;;4.00;3.43;;;8.50;99.90;;;;;;5012765;28;20418;-57
2021/11/09 16:10:07;;;;;;;4.80;4.23;;;8.50;99.90;;;;;;5012961;28;20407;-58